Altisurface de La Taillade

FR-0290 · Cantal, Auvergne-Rhône-Alpes, 法国

罗盘
风向 的 风向 090°
风: 4 kt, 2 beaufort

添加一条跑道以查看侧风和逆风信息。

添置 跑道
0 1.000 2.000 3.000 4.000 5.000
BKN 2.800 ft
OVC 3.300 ft
METAR LFLW 022200Z AUTO 09004KT 6000 BKN028 OVC033 00/00 Q1011

METAR Altisurface de La Taillade - FR-0290

Altisurface de La Taillade是,法国中的小机场。 视场标高为2.913 ft。 该领域的国际民航组织标志是FR-0290.

这份报告是针对2022年12月2日 23:00, 当地时间在Aurillac Airport进行的。

机场观察

风向为090°,速度为4 kt。

可见度为6 km。

有碎云在2.800 ft的高度 和 乌云密布在3.300 ft的高度。 破损或更高的上限为2.800 ft。

温度为0 °C,阵风为-4 °C。 海平面上的气压为1011 hPa (QNH)。

白天

今天,太阳从08:06升起,在17:08降落。 这适用于Altisurface de La Taillade,世界夏令时可能有所不同。 当地时间与世界标准时间之间的时差为+1 小时。 当前,没有夏令时有效。

公司介绍

我们没有关于这个机场的公司信息。

体会

到Vliegles.nl去找飞行课程,跳伞和其他飞行体验。 浏览页面,了解Altisurface de La Taillade附近所有可用的活动。 你也可以使用搜索功能来寻找你所在地附近的特定飞行课程、跳伞或其他飞行体验。

乌云

2.800 ft BKN 碎云
3.300 ft OVC 乌云密布

温度 & 天气

温度 0 °C
露点 0 °C
相对湿度 100%
风寒 -4 °C
Kp-index 2 (0-9)

白天

日出
08:08 (8:39)
中午
12:39
日落
17:10

小工具

你想在你的网站上有一个关于Altisurface de La Taillade的当前航空天气(METAR)的小部件吗?

显示HTML代码

我们和第三方通过cookies跟踪您在我们网站上的互联网行为。如果你继续,我们认为你同意我们的饼干政策